createdAt,value
2019-04-25T00:00:48.045Z,6.12
2019-04-25T00:03:22.212Z,5.37
2019-04-25T00:05:53.726Z,7.20
2019-04-25T00:08:22.323Z,5.10
2019-04-25T00:10:51.698Z,4.67
2019-04-25T00:13:21.798Z,6.30
2019-04-25T00:15:51.883Z,5.42
2019-04-25T00:18:21.976Z,4.95
2019-04-25T00:20:54.091Z,3.75
2019-04-25T00:23:22.531Z,4.28
2019-04-25T00:26:07.198Z,5.60
2019-04-25T00:28:38.514Z,4.55
2019-04-25T00:31:07.822Z,8.95
2019-04-25T00:33:36.935Z,5.00
2019-04-25T00:36:05.386Z,5.08
2019-04-25T00:38:36.380Z,4.85
2019-04-25T00:41:04.899Z,7.30
2019-04-25T00:43:33.412Z,3.65
2019-04-25T00:46:03.409Z,4.12
2019-04-25T00:48:31.913Z,4.87
2019-04-25T00:51:01.740Z,4.85
2019-04-25T00:53:31.948Z,4.67
2019-04-25T00:56:01.487Z,4.50
2019-04-25T00:58:37.669Z,5.08
2019-04-25T01:01:07.746Z,6.72
2019-04-25T01:03:36.771Z,5.55
2019-04-25T01:06:05.283Z,3.90
2019-04-25T01:08:33.788Z,5.53
2019-04-25T01:11:02.400Z,4.62
2019-04-25T01:13:32.229Z,6.25
2019-04-25T01:16:02.172Z,6.37
2019-04-25T01:18:31.396Z,6.15
2019-04-25T01:21:00.979Z,8.60
2019-04-25T01:23:29.488Z,5.40
2019-04-25T01:25:58.012Z,9.18
2019-04-25T01:28:26.534Z,8.28
2019-04-25T01:30:56.610Z,8.03
2019-04-25T01:33:26.695Z,8.18
2019-04-25T01:36:03.446Z,7.58
2019-04-25T01:38:33.640Z,8.45
2019-04-25T01:41:03.782Z,10.00
2019-04-25T01:43:56.641Z,11.18
2019-04-25T01:46:24.211Z,9.75
2019-04-25T01:48:54.524Z,13.40
2019-04-25T01:51:24.024Z,11.40
2019-04-25T01:53:54.213Z,10.88
2019-04-25T01:56:24.681Z,11.88
2019-04-25T01:58:54.523Z,12.10
2019-04-25T02:01:24.401Z,11.78
2019-04-25T02:03:54.312Z,12.85
2019-04-25T02:06:24.678Z,14.18
2019-04-25T02:08:54.969Z,10.63
2019-04-25T02:11:43.916Z,14.68
2019-04-25T02:14:13.710Z,12.18
2019-04-25T02:16:43.953Z,13.30
2019-04-25T02:19:14.581Z,13.70
2019-04-25T02:21:43.508Z,14.23
2019-04-25T02:24:13.598Z,14.15
2019-04-25T02:26:43.688Z,12.95
2019-04-25T02:29:13.682Z,19.32
2019-04-25T02:31:44.770Z,17.00
2019-04-25T02:34:15.278Z,16.70
2019-04-25T02:36:46.442Z,18.90
2019-04-25T02:39:17.930Z,19.75
2019-04-25T02:41:46.520Z,18.02
2019-04-25T02:44:14.955Z,15.78
2019-04-25T02:46:51.047Z,19.48
2019-04-25T02:49:32.847Z,19.07
2019-04-25T02:51:59.484Z,19.90
2019-04-25T02:54:28.378Z,17.37
2019-04-25T02:56:57.370Z,18.77
2019-04-25T02:59:28.361Z,21.27
2019-04-25T03:01:57.642Z,19.77
2019-04-25T03:04:27.048Z,17.67
2019-04-25T03:06:57.149Z,22.17
2019-04-25T03:09:25.685Z,22.82
2019-04-25T03:11:54.838Z,25.72
2019-04-25T03:14:26.385Z,20.85
2019-04-25T03:16:54.382Z,20.08
2019-04-25T03:19:40.745Z,22.70
2019-04-25T03:22:15.036Z,25.23
2019-04-25T03:24:45.804Z,18.07
2019-04-25T03:27:18.530Z,22.55
2019-04-25T03:29:48.150Z,23.27
2019-04-25T03:32:20.027Z,22.48
2019-04-25T03:34:47.008Z,28.38
2019-04-25T03:37:18.031Z,20.65
2019-04-25T03:39:46.484Z,20.65
2019-04-25T03:42:14.950Z,30.17
2019-04-25T03:44:43.882Z,22.32
2019-04-25T03:47:13.552Z,25.20
2019-04-25T03:49:43.437Z,26.60
2019-04-25T03:52:13.770Z,22.87
2019-04-25T03:54:43.411Z,20.80
2019-04-25T03:57:14.347Z,21.97
2019-04-25T03:59:43.688Z,34.63
2019-04-25T04:02:13.540Z,25.15
2019-04-25T04:04:43.526Z,24.77
2019-04-25T04:07:12.744Z,25.43
2019-04-25T04:09:43.530Z,24.82
2019-04-25T04:12:15.727Z,22.13
2019-04-25T04:14:44.346Z,23.15
2019-04-25T04:17:31.615Z,22.73
2019-04-25T04:20:01.705Z,23.25
2019-04-25T04:22:37.515Z,24.85
2019-04-25T04:25:09.544Z,22.82
2019-04-25T04:27:38.431Z,25.45
2019-04-25T04:30:08.015Z,23.00
2019-04-25T04:32:38.280Z,26.50
2019-04-25T04:35:07.317Z,19.85
2019-04-25T04:37:35.824Z,24.77
2019-04-25T04:40:06.139Z,22.73
2019-04-25T04:42:34.681Z,19.75
2019-04-25T04:45:05.817Z,19.70
2019-04-25T04:47:34.878Z,25.00
2019-04-25T04:50:04.050Z,16.65
2019-04-25T04:52:33.991Z,21.52
2019-04-25T04:55:06.367Z,18.17
2019-04-25T04:57:35.949Z,16.27
2019-04-25T05:00:05.531Z,16.00
2019-04-25T05:02:53.934Z,17.60
2019-04-25T05:05:45.175Z,15.08
2019-04-25T05:08:30.412Z,13.08
2019-04-25T05:10:58.881Z,11.60
2019-04-25T05:13:29.771Z,10.88
2019-04-25T05:15:57.525Z,12.20
2019-04-25T05:18:36.992Z,11.53
2019-04-25T05:20:56.212Z,10.63
2019-04-25T05:23:24.961Z,7.90
2019-04-25T05:25:54.188Z,6.28
2019-04-25T05:28:24.778Z,7.08
2019-04-25T05:31:06.909Z,6.47
2019-04-25T05:33:35.373Z,3.72
2019-04-25T05:36:05.853Z,5.85
2019-04-25T05:38:34.044Z,3.65
2019-04-25T05:41:06.952Z,7.10
2019-04-25T05:43:35.390Z,3.85
2019-04-25T05:46:04.192Z,6.15
2019-04-25T05:48:34.013Z,9.78
2019-04-25T05:51:03.927Z,5.33
2019-04-25T05:53:33.342Z,3.35
2019-04-25T05:56:01.879Z,2.50
2019-04-25T05:58:30.422Z,4.70
2019-04-25T06:01:00.433Z,6.35
2019-04-25T06:03:48.217Z,2.90
2019-04-25T06:06:17.437Z,3.90
2019-04-25T06:08:59.496Z,3.15
2019-04-25T06:11:29.589Z,4.65
2019-04-25T06:14:00.351Z,12.10
2019-04-25T06:16:30.655Z,4.20
2019-04-25T06:19:12.935Z,4.97
2019-04-25T06:21:31.808Z,3.47
2019-04-25T06:24:14.375Z,5.35
2019-04-25T06:26:44.633Z,3.87
2019-04-25T06:29:13.403Z,5.40
2019-04-25T06:31:41.978Z,6.08
2019-04-25T06:34:10.421Z,4.95
2019-04-25T06:36:38.868Z,4.00
2019-04-25T06:39:08.044Z,3.02
2019-04-25T06:41:36.474Z,3.72
2019-04-25T06:44:07.331Z,2.55
2019-04-25T06:46:53.606Z,4.20
2019-04-25T06:49:27.724Z,5.45
2019-04-25T06:51:56.328Z,9.53
2019-04-25T06:54:25.763Z,3.30
2019-04-25T06:56:56.320Z,2.80
2019-04-25T06:59:26.577Z,7.08
2019-04-25T07:01:56.738Z,6.15
2019-04-25T07:04:26.636Z,3.35
2019-04-25T07:06:55.433Z,3.85
2019-04-25T07:09:26.864Z,6.28
2019-04-25T07:11:56.575Z,5.17
2019-04-25T07:14:27.048Z,13.68
2019-04-25T07:16:56.301Z,4.53
2019-04-25T07:19:25.944Z,4.87
2019-04-25T07:21:55.965Z,6.08
2019-04-25T07:24:25.856Z,7.03
2019-04-25T07:26:58.995Z,7.05
2019-04-25T07:29:29.104Z,7.85
2019-04-25T07:31:59.224Z,7.10
2019-04-25T07:34:30.792Z,7.80
2019-04-25T07:36:59.300Z,6.42
2019-04-25T07:39:30.594Z,6.60
2019-04-25T07:41:59.035Z,7.40
2019-04-25T07:44:39.518Z,3.42
2019-04-25T07:46:57.649Z,3.58
2019-04-25T07:49:26.844Z,5.85
2019-04-25T07:51:55.398Z,4.58
2019-04-25T07:54:23.967Z,8.08
2019-04-25T07:56:55.104Z,3.80
2019-04-25T07:59:23.807Z,4.58
2019-04-25T08:01:53.563Z,7.67
2019-04-25T08:04:23.611Z,5.80
2019-04-25T08:06:52.141Z,4.45
2019-04-25T08:09:20.756Z,5.75
2019-04-25T08:11:49.232Z,9.83
2019-04-25T08:14:24.270Z,5.35
2019-04-25T08:16:57.279Z,10.30
2019-04-25T08:19:25.975Z,3.08
2019-04-25T08:21:55.652Z,9.10
2019-04-25T08:24:24.676Z,5.45
2019-04-25T08:26:53.500Z,6.00
2019-04-25T08:29:25.266Z,4.00
2019-04-25T08:31:53.687Z,9.50
2019-04-25T08:34:22.206Z,2.60
2019-04-25T08:36:50.624Z,5.30
2019-04-25T08:39:19.084Z,8.08
2019-04-25T08:41:47.539Z,8.70
2019-04-25T08:44:15.987Z,4.22
2019-04-25T08:46:56.447Z,5.80
2019-04-25T08:49:26.549Z,5.35
2019-04-25T08:51:56.564Z,8.45
2019-04-25T08:54:26.919Z,5.20
2019-04-25T08:56:57.006Z,6.65
2019-04-25T08:59:49.404Z,7.47
2019-04-25T09:02:31.618Z,4.72
2019-04-25T09:05:19.329Z,5.80
2019-04-25T09:07:50.412Z,8.28
2019-04-25T09:10:20.915Z,5.15
2019-04-25T09:12:50.386Z,6.65
2019-04-25T09:15:18.910Z,3.62
2019-04-25T09:17:47.359Z,4.85
2019-04-25T09:20:16.335Z,6.20
2019-04-25T09:22:45.561Z,9.83
2019-04-25T09:25:15.538Z,3.87
2019-04-25T09:27:45.822Z,3.12
2019-04-25T09:30:14.496Z,7.20
2019-04-25T09:32:44.505Z,9.08
2019-04-25T09:35:13.754Z,3.83
2019-04-25T09:37:44.754Z,12.28
2019-04-25T09:40:16.805Z,6.03
2019-04-25T09:42:46.309Z,6.10
2019-04-25T09:45:28.738Z,8.73
2019-04-25T09:48:03.121Z,5.85
2019-04-25T09:50:33.950Z,7.00
2019-04-25T09:53:02.706Z,8.98
2019-04-25T09:55:34.051Z,10.03
2019-04-25T09:58:06.819Z,11.43
2019-04-25T10:00:38.188Z,5.03
2019-04-25T10:03:07.034Z,9.08
2019-04-25T10:05:36.870Z,7.70
2019-04-25T10:08:05.766Z,5.92
2019-04-25T10:10:36.272Z,7.35
2019-04-25T10:13:06.549Z,6.53
2019-04-25T10:15:47.948Z,7.67
2019-04-25T10:18:16.660Z,7.67
2019-04-25T10:20:46.318Z,6.72
2019-04-25T10:23:15.645Z,7.80
2019-04-25T10:25:45.121Z,3.65
2019-04-25T10:28:13.748Z,5.60
2019-04-25T10:30:42.953Z,5.03
2019-04-25T10:33:14.204Z,7.10
2019-04-25T10:35:52.150Z,5.62
2019-04-25T10:38:15.112Z,7.70
2019-04-25T10:40:46.266Z,5.00
2019-04-25T10:43:16.933Z,7.85
2019-04-25T10:45:47.267Z,6.90
2019-04-25T10:48:17.370Z,13.58
2019-04-25T10:50:47.188Z,7.00
2019-04-25T10:53:17.304Z,6.53
2019-04-25T10:55:47.581Z,5.28
2019-04-25T10:58:16.172Z,11.33
2019-04-25T11:00:48.411Z,9.65
2019-04-25T11:03:37.020Z,8.58
2019-04-25T11:06:05.997Z,8.18
2019-04-25T11:08:34.517Z,8.23
2019-04-25T11:11:03.754Z,7.62
2019-04-25T11:13:33.951Z,8.30
2019-04-25T11:16:03.519Z,9.08
2019-04-25T11:18:33.912Z,5.47
2019-04-25T11:21:05.775Z,11.12
2019-04-25T11:23:32.601Z,8.60
2019-04-25T11:26:01.116Z,7.25
2019-04-25T11:28:29.643Z,6.45
2019-04-25T11:30:58.156Z,5.87
2019-04-25T11:33:27.151Z,10.98
2019-04-25T11:35:56.279Z,7.08
2019-04-25T11:38:26.655Z,3.15
2019-04-25T11:41:01.764Z,4.28
2019-04-25T11:43:35.637Z,5.15
2019-04-25T11:46:04.933Z,6.83
2019-04-25T11:48:34.083Z,5.42
2019-04-25T11:51:03.671Z,5.78
2019-04-25T11:53:33.786Z,5.33
2019-04-25T11:56:03.722Z,6.03
2019-04-25T11:58:32.432Z,3.42
2019-04-25T12:01:01.052Z,7.22
2019-04-25T12:03:30.691Z,10.90
2019-04-25T12:05:59.131Z,5.20
2019-04-25T12:08:27.580Z,5.47
2019-04-25T12:10:58.576Z,6.17
2019-04-25T12:13:27.019Z,6.80
2019-04-25T12:15:55.739Z,8.20
2019-04-25T12:18:25.652Z,6.17
2019-04-25T12:20:55.425Z,7.35
2019-04-25T12:23:24.378Z,9.03
2019-04-25T12:25:54.389Z,6.90
2019-04-25T12:28:23.549Z,8.95
2019-04-25T12:30:52.028Z,3.55
2019-04-25T12:33:21.563Z,4.40
2019-04-25T12:35:51.987Z,6.60
2019-04-25T12:38:20.546Z,6.65
2019-04-25T12:40:50.007Z,13.85
2019-04-25T12:43:18.861Z,7.75
2019-04-25T12:45:49.268Z,5.08
2019-04-25T12:48:17.940Z,9.83
2019-04-25T12:50:46.447Z,6.70
2019-04-25T12:53:14.907Z,11.03
2019-04-25T12:55:44.306Z,7.75
2019-04-25T12:58:13.574Z,6.97
2019-04-25T13:00:49.425Z,9.53
2019-04-25T13:03:14.902Z,7.12
2019-04-25T13:05:44.256Z,8.63
2019-04-25T13:08:14.311Z,6.78
2019-04-25T13:10:44.458Z,5.33
2019-04-25T13:13:16.357Z,4.58
2019-04-25T13:15:46.152Z,11.15
2019-04-25T13:18:14.690Z,2.87
2019-04-25T13:20:43.135Z,7.17
2019-04-25T13:23:11.734Z,6.83
2019-04-25T13:25:40.254Z,4.83
2019-04-25T13:28:28.429Z,3.00
2019-04-25T13:31:10.408Z,5.95
2019-04-25T13:33:44.840Z,1.95
2019-04-25T13:36:14.929Z,6.97
2019-04-25T13:38:43.627Z,4.15
2019-04-25T13:41:13.795Z,4.65
2019-04-25T13:43:42.232Z,4.62
2019-04-25T13:46:11.134Z,6.33
2019-04-25T13:51:04.601Z,4.15
2019-04-25T13:53:34.648Z,3.83
2019-04-25T13:56:04.856Z,5.75
2019-04-25T13:58:34.282Z,6.62
2019-04-25T14:01:12.363Z,6.45
2019-04-25T14:03:35.485Z,6.05
2019-04-25T14:06:10.727Z,9.68
2019-04-25T14:08:49.210Z,6.17
2019-04-25T14:11:27.834Z,7.58
2019-04-25T14:13:56.530Z,7.08
2019-04-25T14:16:26.812Z,4.08
2019-04-25T14:19:07.713Z,5.15
2019-04-25T14:21:36.228Z,1.92
2019-04-25T14:24:05.036Z,8.08
2019-04-25T14:26:33.563Z,8.03
2019-04-25T14:29:02.090Z,7.17
2019-04-25T14:31:44.952Z,3.05
2019-04-25T14:34:08.765Z,10.58
2019-04-25T14:36:51.768Z,5.42
2019-04-25T14:39:17.116Z,3.87
2019-04-25T14:41:48.210Z,4.42
2019-04-25T14:44:16.706Z,3.60
2019-04-25T14:46:45.155Z,4.03
2019-04-25T14:49:13.600Z,5.40
2019-04-25T14:51:42.098Z,6.10
2019-04-25T14:54:12.171Z,4.30
2019-04-25T14:56:42.336Z,1.95
2019-04-25T14:59:11.138Z,3.58
2019-04-25T15:01:44.897Z,2.55
2019-04-25T15:04:09.732Z,3.80
2019-04-25T15:06:38.178Z,1.70
2019-04-25T15:09:07.559Z,3.37
2019-04-25T15:11:40.487Z,3.37
2019-04-25T15:14:10.481Z,2.37
2019-04-25T15:16:38.915Z,3.40
2019-04-25T15:19:08.015Z,4.78
2019-04-25T15:21:39.304Z,2.12
2019-04-25T15:24:07.751Z,6.53
2019-04-25T15:26:36.189Z,5.10
2019-04-25T15:29:04.812Z,3.02
2019-04-25T15:31:35.898Z,3.27
2019-04-25T15:34:04.412Z,6.00
2019-04-25T15:36:37.729Z,2.50
2019-04-25T15:39:25.079Z,1.62
2019-04-25T15:42:07.951Z,3.15
2019-04-25T15:44:40.630Z,2.35
2019-04-25T15:47:11.048Z,1.65
2019-04-25T15:49:42.784Z,2.25
2019-04-25T15:52:11.847Z,9.68
2019-04-25T15:54:40.320Z,2.80
2019-04-25T15:57:12.885Z,2.17
2019-04-25T15:59:44.271Z,1.42
2019-04-25T16:02:14.502Z,6.58
2019-04-25T16:04:42.936Z,4.53
2019-04-25T16:07:16.339Z,2.62
2019-04-25T16:09:47.831Z,2.70
2019-04-25T16:12:19.457Z,3.50
2019-04-25T16:14:50.176Z,9.70
2019-04-25T16:17:18.674Z,3.52
2019-04-25T16:19:47.234Z,4.20
2019-04-25T16:22:15.684Z,3.90
2019-04-25T16:24:44.132Z,4.72
2019-04-25T16:27:17.540Z,2.45
2019-04-25T16:29:46.011Z,7.62
2019-04-25T16:32:20.856Z,1.67
2019-04-25T16:34:46.328Z,3.77
2019-04-25T16:37:14.787Z,4.47
2019-04-25T16:39:44.818Z,4.67
2019-04-25T16:42:13.416Z,3.05
2019-04-25T16:44:44.925Z,1.35
2019-04-25T16:47:14.751Z,2.12
2019-04-25T16:49:46.100Z,3.35
2019-04-25T16:52:17.704Z,2.98
2019-04-25T16:54:46.034Z,3.95
2019-04-25T16:57:14.545Z,2.10
2019-04-25T16:59:43.866Z,7.30
2019-04-25T17:02:12.294Z,4.78
2019-04-25T17:04:42.297Z,4.85
2019-04-25T17:07:12.867Z,3.95
2019-04-25T17:09:42.824Z,7.72
2019-04-25T17:12:11.591Z,6.37
2019-04-25T17:14:59.138Z,4.05
2019-04-25T17:17:29.276Z,3.58
2019-04-25T17:20:08.130Z,5.37
2019-04-25T17:22:37.120Z,4.60
2019-04-25T17:25:07.319Z,3.55
2019-04-25T17:27:37.038Z,3.10
2019-04-25T17:30:06.975Z,2.30
2019-04-25T17:32:53.378Z,1.72
2019-04-25T17:35:29.790Z,2.45
2019-04-25T17:37:59.878Z,3.10
2019-04-25T17:40:29.979Z,2.45
2019-04-25T17:43:10.223Z,4.17
2019-04-25T17:45:33.401Z,2.50
2019-04-25T17:48:03.011Z,2.40
2019-04-25T17:50:34.205Z,5.67
2019-04-25T17:53:02.891Z,2.85
2019-04-25T17:55:33.140Z,3.35
2019-04-25T17:58:01.512Z,2.55
2019-04-25T18:00:38.317Z,2.02
2019-04-25T18:03:09.016Z,4.60
2019-04-25T18:05:37.455Z,5.55
2019-04-25T18:08:05.977Z,2.52
2019-04-25T18:10:35.609Z,4.92
2019-04-25T18:13:05.970Z,2.72
2019-04-25T18:15:45.945Z,7.95
2019-04-25T18:18:29.508Z,3.90
2019-04-25T18:20:57.947Z,3.85
2019-04-25T18:23:29.712Z,1.82
2019-04-25T18:26:02.423Z,1.72
2019-04-25T18:28:35.428Z,2.58
2019-04-25T18:31:04.519Z,4.30
2019-04-25T18:33:32.952Z,3.37
2019-04-25T18:36:03.056Z,8.35
2019-04-25T18:38:36.114Z,2.90
2019-04-25T18:43:54.700Z,4.42
2019-04-25T18:48:58.879Z,5.67
2019-04-25T18:51:27.382Z,5.20
2019-04-25T18:53:59.208Z,4.03
2019-04-25T18:56:31.847Z,2.95
2019-04-25T18:59:18.382Z,3.10
2019-04-25T19:02:04.572Z,3.95
2019-04-25T19:04:42.908Z,5.00
2019-04-25T19:07:22.180Z,2.40
2019-04-25T19:09:41.603Z,4.45
2019-04-25T19:12:10.040Z,5.55
2019-04-25T19:14:57.834Z,2.10
2019-04-25T19:17:26.272Z,3.87
2019-04-25T19:19:54.713Z,4.35
2019-04-25T19:22:23.152Z,4.20
2019-04-25T19:24:52.188Z,2.30
2019-04-25T19:27:23.945Z,2.50
2019-04-25T19:29:53.488Z,4.17
2019-04-25T19:32:21.118Z,3.67
2019-04-25T19:34:49.563Z,5.97
2019-04-25T19:37:17.996Z,1.98
2019-04-25T19:39:48.078Z,7.45
2019-04-25T19:42:18.249Z,5.67
2019-04-25T19:44:49.210Z,2.02
2019-04-25T19:47:20.599Z,3.83
2019-04-25T19:49:47.952Z,5.78
2019-04-25T19:52:16.396Z,3.15
2019-04-25T19:54:45.229Z,3.62
2019-04-25T19:57:13.832Z,4.30
2019-04-25T19:59:43.200Z,8.18
2019-04-25T20:02:13.832Z,2.85
2019-04-25T20:04:45.508Z,2.90
2019-04-25T20:07:15.615Z,4.03
2019-04-25T20:10:01.771Z,3.40
2019-04-25T20:12:31.932Z,5.70
2019-04-25T20:15:01.184Z,3.42
2019-04-25T20:17:29.637Z,4.12
2019-04-25T20:19:58.075Z,3.75
2019-04-25T20:22:27.435Z,2.00
2019-04-25T20:24:58.450Z,4.67
2019-04-25T20:27:28.284Z,2.37
2019-04-25T20:29:56.727Z,4.00
2019-04-25T20:32:25.333Z,2.30
2019-04-25T20:34:53.771Z,6.80
2019-04-25T20:37:22.459Z,5.05
2019-04-25T20:39:55.951Z,3.80
2019-04-25T20:42:24.663Z,4.45
2019-04-25T20:44:53.730Z,3.90
2019-04-25T20:47:25.938Z,2.00
2019-04-25T20:49:59.783Z,3.02
2019-04-25T20:52:28.295Z,4.13
2019-04-25T20:55:03.979Z,5.08
2019-04-25T20:57:32.999Z,3.10
2019-04-25T21:00:03.487Z,4.72
2019-04-25T21:02:31.944Z,3.35
2019-04-25T21:05:01.037Z,2.47
2019-04-25T21:07:32.184Z,4.05
2019-04-25T21:10:00.621Z,4.75
2019-04-25T21:12:29.834Z,4.85
2019-04-25T21:15:14.693Z,4.05
2019-04-25T21:17:50.976Z,7.78
2019-04-25T21:20:20.591Z,4.05
2019-04-25T21:22:49.444Z,3.27
2019-04-25T21:25:18.857Z,2.83
2019-04-25T21:27:47.345Z,5.08
2019-04-25T21:30:17.359Z,5.55
2019-04-25T21:32:50.529Z,4.10
2019-04-25T21:35:19.675Z,5.50
2019-04-25T21:37:48.195Z,12.15
2019-04-25T21:40:23.946Z,5.53
2019-04-25T21:42:57.201Z,6.42
2019-04-25T21:45:27.132Z,5.85
2019-04-25T21:47:56.896Z,5.28
2019-04-25T21:50:27.303Z,8.50
2019-04-25T21:52:56.114Z,4.85
2019-04-25T21:55:25.647Z,6.75
2019-04-25T21:57:55.160Z,8.93
2019-04-25T22:00:28.772Z,7.78
2019-04-25T22:03:10.071Z,10.35
2019-04-25T22:05:38.721Z,9.65
2019-04-25T22:08:07.157Z,8.10
2019-04-25T22:10:37.243Z,5.42
2019-04-25T22:13:16.138Z,5.75
2019-04-25T22:15:38.201Z,7.50
2019-04-25T22:18:07.152Z,6.97
2019-04-25T22:20:35.670Z,5.83
2019-04-25T22:23:04.717Z,8.50
2019-04-25T22:25:33.531Z,6.22
2019-04-25T22:28:04.042Z,7.40
2019-04-25T22:30:33.627Z,5.55
2019-04-25T22:33:08.366Z,10.10
2019-04-25T22:35:38.465Z,7.87
2019-04-25T22:38:08.825Z,9.68
2019-04-25T22:40:37.342Z,9.75
2019-04-25T22:43:07.804Z,13.28
2019-04-25T22:45:36.746Z,11.45
2019-04-25T22:48:06.853Z,9.53
2019-04-25T22:50:35.917Z,8.45
2019-04-25T22:53:04.472Z,9.00
2019-04-25T22:55:33.261Z,15.18
2019-04-25T22:58:02.750Z,11.03
2019-04-25T23:00:38.728Z,7.53
2019-04-25T23:03:09.342Z,7.72
2019-04-25T23:05:39.530Z,7.72
2019-04-25T23:08:08.154Z,10.32
2019-04-25T23:10:36.606Z,9.50
2019-04-25T23:13:05.051Z,7.60
2019-04-25T23:15:33.494Z,10.60
2019-04-25T23:18:04.337Z,10.75
2019-04-25T23:20:33.858Z,10.08
2019-04-25T23:23:04.214Z,8.40
2019-04-25T23:25:35.972Z,9.08
2019-04-25T23:28:08.719Z,7.40
2019-04-25T23:30:41.922Z,11.50
2019-04-25T23:33:10.633Z,9.28
2019-04-25T23:35:42.269Z,9.98
2019-04-25T23:38:17.353Z,10.65
2019-04-25T23:40:45.794Z,7.10
2019-04-25T23:43:14.632Z,11.57
2019-04-25T23:45:43.075Z,9.83
2019-04-25T23:48:12.416Z,6.92
2019-04-25T23:50:41.002Z,8.48
2019-04-25T23:53:09.459Z,7.95
2019-04-25T23:55:40.514Z,7.00
2019-04-25T23:58:10.022Z,13.98
